Lannion, Lannion Airport (LFRO)

NameLannion Airport
CityLannion
CountryFrance
ICAOLFRO
IATALAI
Altitude88 m
CoordinatesGoogle Map
Live Air TrafficLiveATC.net
METARLFRO 181000Z AUTO 22017G27KT 9999 FEW025 14/10 Q1006
2019-10-18 10:00:00 Wind: South-Southwest (220°) 8.75 m/s - Visibility: > 10000 m - Temperature: 14 °C - Dew point: 10 °C - Humidity: 77% - Pressure: 1006 hPa
Statistics

The table below shows the detailed information of all flights to/from Lannion, Lannion Airport (LFRO).